首页
METAR-TAF:

METAR-TAF

机场 :

亚历山德里亚, 路易斯安那州, 美国

纬度: 31-20-05N, 经度: 092-33-31W, 海拔: 27米

当前天气观测

该预报发布于28分钟前的15:53 UTC
风速4节,风向东转东南
温度 8°C
湿度 57%
气压 1027 hPa
能見度: 16.1公里
天空无云

METAR: KAEX 121553Z 12004KT 10SM CLR 08/00 A3033 RMK AO2 SLP274 T00830000

时间: 10:21 (16:21 UTC)

预报

该预报发布于4小时和44分钟前的11:37 UTC
预报有效从12日的 12点(UTC)到 13日的 12点(UTC)
风速5节,风向多变
能見度: 10公里
散云层高于25000英尺
从 12日的 2100点(UTC)
风速5节,风向多变
能見度: 10公里
散云层高于8000英尺
散云层高于25000英尺
短暂存在
从 13日的 08点(UTC)到 13日的 12点(UTC)
能見度: 8.0公里
轻雾

TAF: KAEX 121137Z 1212/1312 VRB05KT P6SM SCT250 FM122100 VRB05KT P6SM SCT080 SCT250 TEMPO 1308/1312 5SM BR

超过4000个机场的气象观测和天气预报(METAR&TAF报告)。

可查询的气象台以黄色和红色小点在地图上表示。

将鼠标移到小点上方,可查看气象台名称。

然后点击查看天气观测和预报。

如需切换地图:点击带黑十字的绿色按钮放大地图;点击带横线的绿色按钮缩小地图;或者点击绿色箭头查看邻近地区的地图。


METAR-TAF: